createdAt,value
2018-06-09T00:03:12.701Z,33.63
2018-06-09T00:08:15.738Z,34.03
2018-06-09T00:13:18.777Z,35.00
2018-06-09T00:18:21.831Z,37.87
2018-06-09T00:23:24.769Z,31.77
2018-06-09T00:28:27.812Z,34.67
2018-06-09T00:33:31.509Z,35.70
2018-06-09T00:38:34.637Z,35.37
2018-06-09T00:43:37.701Z,30.70
2018-06-09T00:48:40.732Z,34.17
2018-06-09T00:53:43.768Z,32.33
2018-06-09T00:58:46.836Z,35.37
2018-06-09T01:03:49.985Z,31.43
2018-06-09T01:08:53.032Z,30.33
2018-06-09T01:13:56.081Z,30.17
2018-06-09T01:18:59.129Z,32.53
2018-06-09T01:24:02.173Z,39.70
2018-06-09T01:29:05.209Z,33.17
2018-06-09T01:34:08.252Z,35.17
2018-06-09T01:39:11.288Z,36.63
2018-06-09T01:44:14.328Z,31.47
2018-06-09T01:49:17.376Z,30.97
2018-06-09T01:54:20.436Z,37.03
2018-06-09T01:59:23.491Z,32.73
2018-06-09T02:04:26.544Z,35.23
2018-06-09T02:09:29.595Z,35.10
2018-06-09T02:14:32.645Z,33.23
2018-06-09T02:19:35.699Z,34.43
2018-06-09T02:24:38.555Z,34.13
2018-06-09T02:29:41.609Z,35.47
2018-06-09T02:34:44.737Z,36.20
2018-06-09T02:39:47.777Z,36.10
2018-06-09T02:44:50.903Z,34.27
2018-06-09T02:49:53.945Z,33.00
2018-06-09T02:54:56.994Z,31.53
2018-06-09T03:00:00.049Z,30.93
2018-06-09T03:05:03.097Z,32.43
2018-06-09T03:10:06.159Z,30.47
2018-06-09T03:15:09.204Z,30.67
2018-06-09T03:20:12.240Z,33.70
2018-06-09T03:25:15.286Z,30.60
2018-06-09T03:30:18.328Z,29.07
2018-06-09T03:35:21.659Z,29.93
2018-06-09T03:40:24.697Z,31.43
2018-06-09T03:45:27.757Z,30.47
2018-06-09T03:50:30.868Z,29.50
2018-06-09T03:55:33.865Z,31.57
2018-06-09T04:00:36.904Z,30.63
2018-06-09T04:05:39.953Z,31.33
2018-06-09T04:10:42.989Z,31.73
2018-06-09T04:15:46.117Z,31.87
2018-06-09T04:20:49.154Z,32.00
2018-06-09T04:25:52.188Z,31.77
2018-06-09T04:30:55.228Z,35.33
2018-06-09T04:35:58.381Z,33.03
2018-06-09T04:41:01.426Z,37.47
2018-06-09T04:46:04.468Z,39.97
2018-06-09T04:51:07.595Z,42.87
2018-06-09T04:56:10.433Z,43.10
2018-06-09T05:01:13.480Z,44.90
2018-06-09T05:06:16.545Z,46.87
2018-06-09T05:11:19.612Z,52.80
2018-06-09T05:16:22.665Z,51.60
2018-06-09T05:21:25.708Z,53.27
2018-06-09T05:26:28.777Z,53.40
2018-06-09T05:31:31.819Z,56.17
2018-06-09T05:36:34.861Z,53.53
2018-06-09T05:41:37.900Z,54.30
2018-06-09T05:46:40.975Z,57.43
2018-06-09T05:51:44.013Z,55.93
2018-06-09T05:56:47.056Z,54.27
2018-06-09T06:01:50.100Z,51.50
2018-06-09T06:06:53.149Z,59.03
2018-06-09T06:11:56.201Z,58.23
2018-06-09T06:16:59.397Z,58.30
2018-06-09T06:22:02.432Z,55.87
2018-06-09T06:27:05.481Z,53.93
2018-06-09T06:32:08.970Z,52.90
2018-06-09T06:37:12.051Z,52.83
2018-06-09T06:42:15.097Z,50.77
2018-06-09T06:47:18.186Z,49.60
2018-06-09T06:52:21.184Z,47.23
2018-06-09T06:57:24.345Z,46.53
2018-06-09T07:02:27.393Z,45.37
2018-06-09T07:07:30.432Z,46.53
2018-06-09T07:12:33.481Z,46.13
2018-06-09T07:17:36.688Z,46.07
2018-06-09T07:22:39.757Z,44.83
2018-06-09T07:27:42.907Z,46.63
2018-06-09T07:32:45.952Z,46.37
2018-06-09T07:37:48.995Z,44.37
2018-06-09T07:42:52.052Z,43.37
2018-06-09T07:47:55.170Z,43.10
2018-06-09T07:52:58.164Z,44.10
2018-06-09T07:58:01.265Z,44.40
2018-06-09T08:03:04.320Z,43.30
2018-06-09T08:08:07.365Z,43.30
2018-06-09T08:13:10.401Z,42.50
2018-06-09T08:18:13.462Z,40.13
2018-06-09T08:23:16.522Z,41.23
2018-06-09T08:28:19.561Z,41.27
2018-06-09T08:33:22.613Z,38.17
2018-06-09T08:38:25.648Z,36.47
2018-06-09T08:43:28.697Z,35.57
2018-06-09T08:48:31.761Z,35.77
2018-06-09T08:53:34.885Z,34.60
2018-06-09T08:58:37.932Z,35.60
2018-06-09T09:03:40.972Z,34.93
2018-06-09T09:08:44.014Z,33.50
2018-06-09T09:13:47.069Z,26.97
2018-06-09T09:18:50.114Z,25.93
2018-06-09T09:23:53.153Z,27.23
2018-06-09T09:28:56.202Z,29.20
2018-06-09T09:33:59.244Z,28.50
2018-06-09T09:39:02.293Z,24.00
2018-06-09T09:44:05.464Z,27.20
2018-06-09T09:49:08.518Z,27.57
2018-06-09T09:54:11.555Z,21.37
2018-06-09T09:59:14.688Z,24.83
2018-06-09T10:04:17.728Z,31.17
2018-06-09T10:09:20.765Z,25.23
2018-06-09T10:14:23.825Z,24.60
2018-06-09T10:19:26.860Z,23.40
2018-06-09T10:24:29.908Z,21.80
2018-06-09T10:29:32.945Z,22.87
2018-06-09T10:34:35.985Z,23.67
2018-06-09T10:39:39.029Z,21.33
2018-06-09T10:44:42.076Z,20.47
2018-06-09T10:49:45.149Z,20.10
2018-06-09T10:54:48.206Z,16.73
2018-06-09T10:59:51.272Z,17.40
2018-06-09T11:04:54.312Z,16.60
2018-06-09T11:09:57.357Z,15.80
2018-06-09T11:15:00.408Z,15.90
2018-06-09T11:20:03.480Z,18.33
2018-06-09T11:25:06.521Z,18.33
2018-06-09T11:30:09.565Z,18.00
2018-06-09T11:35:12.625Z,13.40
2018-06-09T11:40:15.681Z,13.13
2018-06-09T11:45:18.720Z,14.93
2018-06-09T11:50:21.765Z,15.10
2018-06-09T11:55:24.908Z,14.10
2018-06-09T12:00:27.957Z,13.20
2018-06-09T12:05:31.015Z,13.93
2018-06-09T12:10:34.052Z,13.70
2018-06-09T12:15:37.101Z,12.90
2018-06-09T12:20:40.245Z,12.10
2018-06-09T12:25:43.305Z,12.30
2018-06-09T12:30:46.350Z,11.63
2018-06-09T12:35:49.398Z,11.90
2018-06-09T12:40:52.344Z,9.27
2018-06-09T12:45:55.388Z,10.37
2018-06-09T12:50:58.438Z,9.40
2018-06-09T12:56:01.470Z,10.47
2018-06-09T13:01:04.602Z,11.17
2018-06-09T13:06:07.677Z,9.80
2018-06-09T13:11:10.813Z,10.23
2018-06-09T13:16:14.111Z,12.07
2018-06-09T13:21:17.228Z,10.50
2018-06-09T13:26:20.288Z,10.07
2018-06-09T13:31:24.685Z,9.60
2018-06-09T13:36:27.729Z,9.00
2018-06-09T13:41:30.568Z,8.03
2018-06-09T13:46:33.608Z,7.97
2018-06-09T13:51:36.652Z,7.70
2018-06-09T13:56:39.707Z,8.27
2018-06-09T14:01:42.748Z,8.37
2018-06-09T14:06:45.824Z,7.80
2018-06-09T14:11:48.870Z,7.83
2018-06-09T14:16:51.933Z,7.73
2018-06-09T14:21:54.969Z,7.27
2018-06-09T14:26:58.008Z,7.37
2018-06-09T14:32:01.044Z,8.00
2018-06-09T14:37:04.218Z,7.93
2018-06-09T14:42:07.281Z,8.07
2018-06-09T14:47:10.313Z,7.70
2018-06-09T14:52:13.356Z,7.27
2018-06-09T14:57:16.484Z,8.30
2018-06-09T15:02:19.530Z,17.73
2018-06-09T15:07:22.599Z,7.43
2018-06-09T15:12:26.440Z,6.90
2018-06-09T15:17:29.502Z,7.03
2018-06-09T15:22:32.579Z,5.80
2018-06-09T15:27:36.209Z,7.57
2018-06-09T15:32:39.421Z,10.17
2018-06-09T15:37:42.632Z,9.30
2018-06-09T15:42:45.737Z,12.23
2018-06-09T15:47:48.874Z,13.73
2018-06-09T15:52:52.090Z,11.97
2018-06-09T15:57:55.294Z,12.47
2018-06-09T16:02:58.570Z,18.87
2018-06-09T16:08:01.817Z,19.77
2018-06-09T16:13:04.938Z,19.13
2018-06-09T16:18:08.091Z,31.03
2018-06-09T16:23:11.268Z,32.17
2018-06-09T16:28:14.417Z,40.80
2018-06-09T16:33:17.577Z,42.17
2018-06-09T16:38:20.695Z,38.70
2018-06-09T16:43:24.025Z,40.33
2018-06-09T16:48:27.182Z,42.00
2018-06-09T16:53:30.318Z,37.67
2018-06-09T16:58:33.463Z,44.90
2018-06-09T17:03:36.392Z,46.30
2018-06-09T17:08:39.540Z,49.77
2018-06-09T17:13:42.666Z,51.60
2018-06-09T17:18:45.765Z,48.90
2018-06-09T17:23:48.958Z,63.17
2018-06-09T17:28:52.084Z,59.50
2018-06-09T17:33:55.225Z,51.80
2018-06-09T17:38:58.469Z,51.83
2018-06-09T17:44:04.806Z,62.30
2018-06-09T17:49:08.038Z,59.47
2018-06-09T17:54:11.243Z,53.80
2018-06-09T17:59:14.384Z,57.80
2018-06-09T18:04:17.555Z,64.90
2018-06-09T18:09:22.558Z,49.43
2018-06-09T18:14:25.817Z,56.73
2018-06-09T18:19:29.041Z,62.17
2018-06-09T18:24:32.249Z,67.70
2018-06-09T18:29:35.590Z,70.77
2018-06-09T18:34:38.857Z,78.13
2018-06-09T18:39:42.016Z,71.43
2018-06-09T18:45:19.746Z,70.80
2018-06-09T18:50:22.944Z,70.93
2018-06-09T18:55:26.102Z,70.50
2018-06-09T19:00:29.290Z,74.40
2018-06-09T19:05:32.564Z,72.20
2018-06-09T19:10:35.761Z,78.00
2018-06-09T19:15:38.916Z,79.07
2018-06-09T19:20:42.081Z,76.07
2018-06-09T19:25:47.420Z,84.27
2018-06-09T19:30:50.297Z,82.27
2018-06-09T19:35:53.358Z,83.77
2018-06-09T19:40:56.429Z,83.97
2018-06-09T19:45:59.477Z,86.67
2018-06-09T19:51:03.049Z,94.13
2018-06-09T19:56:06.115Z,96.20
2018-06-09T20:01:09.424Z,93.70
2018-06-09T20:06:12.503Z,97.73
2018-06-09T20:11:15.622Z,94.70
2018-06-09T20:16:18.772Z,91.93
2018-06-09T20:21:21.891Z,96.50
2018-06-09T20:26:24.945Z,93.30
2018-06-09T20:31:28.125Z,95.70
2018-06-09T20:36:31.342Z,88.53
2018-06-09T20:41:34.474Z,85.70
2018-06-09T20:46:37.577Z,87.40
2018-06-09T20:51:40.692Z,80.83
2018-06-09T20:56:43.809Z,81.37
2018-06-09T21:01:47.697Z,81.33
2018-06-09T21:06:50.785Z,82.07
2018-06-09T21:11:53.868Z,101.77
2018-06-09T21:16:57.108Z,78.23
2018-06-09T21:22:00.165Z,81.03
2018-06-09T21:27:08.725Z,83.17
2018-06-09T21:32:16.385Z,80.47
2018-06-09T21:37:23.658Z,77.83
2018-06-09T21:42:30.921Z,69.63
2018-06-09T21:47:33.975Z,68.00
2018-06-09T21:52:37.167Z,70.13
2018-06-09T21:57:40.276Z,70.50
2018-06-09T22:02:43.333Z,61.20
2018-06-09T22:07:46.382Z,65.53
2018-06-09T22:12:49.448Z,64.67
2018-06-09T22:17:52.541Z,62.77
2018-06-09T22:22:55.730Z,59.87
2018-06-09T22:27:58.593Z,59.13
2018-06-09T22:33:01.650Z,58.20
2018-06-09T22:38:05.652Z,60.87
2018-06-09T22:43:08.806Z,60.83
2018-06-09T22:48:11.897Z,63.03
2018-06-09T22:53:14.949Z,59.97
2018-06-09T22:58:18.710Z,67.83
2018-06-09T23:03:21.770Z,70.27
2018-06-09T23:08:24.903Z,67.10
2018-06-09T23:13:27.989Z,68.43
2018-06-09T23:18:31.029Z,65.17
2018-06-09T23:23:35.089Z,63.67
2018-06-09T23:28:38.180Z,63.30
2018-06-09T23:33:41.304Z,66.23
2018-06-09T23:38:45.537Z,76.37
2018-06-09T23:43:48.388Z,66.27
2018-06-09T23:48:51.517Z,63.97
2018-06-09T23:53:54.585Z,68.70
2018-06-09T23:58:57.700Z,69.23
